Hlavní strana
METAR-TAF:

METAR-TAF

Letiště :

Rygge, Norsko

zeměpisná šířka: 59-23N, zeměpisná délka: 010-47E, výška: 5 m

Aktuální stav počasí

Zpráva byla vytvořena před 37 minutami, v 13:50 UTC
Jihojihozápadní vítr 8 kt, proměnlivý mezi jižním a západojihozápadním
Teplota 16°C
Vlhkost vzduchu 42%
Tlak 1020 hPa
Viditelnost 10 km a více

METAR: ENRY 211350Z AUTO 21008KT 170V240 9999NDV NCD 16/03 Q1020

Čas: 16:27 (14:27 UTC)

Předpověď počasí

Předpověď platná od 21 v 12 UTC do 22 v 12 UTC
Jižní vítr 10 kt
Viditelnost 10 km a více
Žádná oblačnost pod 1500 m, nevyskytují se cumulonimby.
Změna
od 21 v 19 UTC do 21 v 21 UTC
vítr z různých směrů 5 kt

TAF: ENRY 2112/2212 18010KT CAVOK BECMG 2119/2121 VRB05KT

Stav a předpovědi počasí z více než 4 000 letišť (zprávy METAR a TAF).

Červené a žluté tečky na mapě představují dostupné meteorologické stanice.

Když kurzor umístíte na tečku, zobrazí se název stanice.

Pak kliknutím zobrazíte stav a předpověď počasí.

Chcete-li změnit mapu, kliknutím na zelené tlačítko se znaménkem +mapu přiblížíte, kliknutím na zelené tlačítko se znaménkem – mapu oddálíte a kliknutím na zelené šipky přejdete na sousední mapy.


METAR-TAF: